Time;durP1;ratioP1;P1;durP2;ratioP2;P2;SDS_P1;SDS_P2;PMS_P1;PMS_P2;Temp;Humidity;BMP_temperature;BMP_pressure;BME280_temperature;BME280_humidity;BME280_pressure;Samples;Min_cycle;Max_cycle;Signal;HPM_P1;HPM_P2
2023/03/11 00:02:14;;;;;;;1.73;0.88;;;;;;;0.29;86.47;96171.41;5085807;28;20043;-56
2023/03/11 00:04:40;;;;;;;1.83;1.17;;;;;;;0.26;86.76;96169.97;5080195;28;20047;-54
2023/03/11 00:07:09;;;;;;;2.40;1.13;;;;;;;0.21;87.62;96178.59;5090968;28;20055;-54
2023/03/11 00:09:36;;;;;;;1.63;0.90;;;;;;;0.30;86.51;96181.00;5080008;28;20064;-57
2023/03/11 00:12:03;;;;;;;6.18;1.23;;;;;;;0.29;86.95;96177.53;5083319;28;20063;-57
2023/03/11 00:14:30;;;;;;;2.58;1.17;;;;;;;0.23;88.98;96183.72;5081058;28;20565;-54
2023/03/11 00:16:57;;;;;;;3.53;1.52;;;;;;;0.23;88.76;96165.09;5095574;28;20133;-55
2023/03/11 00:19:24;;;;;;;2.38;1.40;;;;;;;0.27;88.00;96195.56;5083512;28;20106;-57
2023/03/11 00:21:50;;;;;;;3.17;0.95;;;;;;;0.24;88.97;96180.03;5080382;28;20574;-56
2023/03/11 00:24:17;;;;;;;2.05;1.33;;;;;;;0.21;88.86;96177.78;5092957;28;20035;-56
2023/03/11 00:26:44;;;;;;;2.72;0.98;;;;;;;0.24;88.56;96191.50;5085053;28;20072;-56
2023/03/11 00:29:10;;;;;;;3.88;1.80;;;;;;;0.24;89.47;96190.66;5085038;28;20070;-56
2023/03/11 00:31:39;;;;;;;1.73;1.10;;;;;;;0.21;88.77;96199.06;5087670;28;20048;-55
2023/03/11 00:34:07;;;;;;;3.03;1.77;;;;;;;0.18;88.50;96192.34;5087005;28;20039;-54
2023/03/11 00:36:33;;;;;;;2.85;1.50;;;;;;;0.15;89.35;96200.78;5085129;28;20040;-56
2023/03/11 00:39:05;;;;;;;3.92;1.30;;;;;;;0.17;89.85;96204.03;5088763;28;20123;-57
2023/03/11 00:41:33;;;;;;;3.72;1.30;;;;;;;0.20;89.98;96216.09;5081614;28;20093;-55
2023/03/11 00:44:00;;;;;;;3.05;1.20;;;;;;;0.24;89.58;96211.97;5095591;28;20229;-56
2023/03/11 00:46:29;;;;;;;3.17;1.52;;;;;;;0.11;90.94;96208.34;5084748;28;20036;-53
2023/03/11 00:48:56;;;;;;;3.88;1.58;;;;;;;0.15;90.46;96210.59;5087769;28;20051;-53
2023/03/11 00:51:23;;;;;;;1.75;1.10;;;;;;;0.33;89.39;96209.88;5083674;28;20048;-55
2023/03/11 00:53:49;;;;;;;6.38;2.15;;;;;;;0.22;90.26;96216.72;5082458;28;20109;-57
2023/03/11 00:56:16;;;;;;;3.05;1.50;;;;;;;0.30;90.71;96226.28;5094573;28;20618;-56
2023/03/11 00:58:44;;;;;;;4.72;1.55;;;;;;;0.35;89.59;96221.94;5084615;28;20099;-56
2023/03/11 01:01:18;;;;;;;4.90;2.15;;;;;;;0.19;90.87;96239.22;5094785;28;20154;-56
2023/03/11 01:03:45;;;;;;;7.53;1.55;;;;;;;0.07;90.61;96231.09;5080248;28;20200;-56
2023/03/11 01:06:12;;;;;;;3.38;1.25;;;;;;;0.03;91.44;96237.88;5085855;28;20522;-55
2023/03/11 01:08:39;;;;;;;3.40;1.70;;;;;;;-0.06;91.90;96233.84;5091267;28;20523;-56
2023/03/11 01:11:07;;;;;;;5.72;2.00;;;;;;;-0.02;90.52;96232.38;5090859;28;20497;-55
2023/03/11 01:13:33;;;;;;;2.40;1.25;;;;;;;-0.09;90.56;96239.56;5089447;28;20606;-56
2023/03/11 01:16:00;;;;;;;2.10;1.13;;;;;;;-0.12;89.47;96248.00;5089133;28;20093;-54
2023/03/11 01:18:27;;;;;;;4.00;1.48;;;;;;;-0.12;89.81;96242.69;5080360;28;20129;-56
2023/03/11 01:20:54;;;;;;;2.88;1.25;;;;;;;-0.09;89.59;96229.75;5085222;28;20051;-54
2023/03/11 01:23:21;;;;;;;5.00;1.88;;;;;;;-0.23;91.42;96244.97;5078210;28;20036;-57
2023/03/11 01:25:47;;;;;;;3.67;1.20;;;;;;;-0.21;91.51;96250.91;5094540;28;20058;-58
2023/03/11 01:28:14;;;;;;;3.00;1.40;;;;;;;-0.21;91.30;96245.56;5088345;28;20039;-55
2023/03/11 01:30:41;;;;;;;2.90;1.58;;;;;;;-0.18;90.88;96245.13;5092835;28;20075;-52
2023/03/11 01:33:14;;;;;;;4.45;1.60;;;;;;;-0.24;91.38;96246.00;5093253;28;20032;-55
2023/03/11 01:35:41;;;;;;;4.68;1.70;;;;;;;-0.24;92.46;96258.47;5090059;28;20048;-56
2023/03/11 01:38:08;;;;;;;4.90;1.50;;;;;;;-0.31;93.23;96258.50;5094378;28;20070;-57
2023/03/11 01:40:38;;;;;;;4.50;1.80;;;;;;;-0.30;92.40;96252.13;5088334;28;20048;-56
2023/03/11 01:43:36;;;;;;;3.33;1.55;;;;;;;-0.33;90.69;96245.41;5077923;28;20065;-53
2023/03/11 01:46:08;;;;;;;3.72;1.40;;;;;;;-0.35;90.24;96250.13;5080958;28;20127;-55
2023/03/11 01:48:37;;;;;;;6.22;1.40;;;;;;;-0.31;91.93;96234.56;5078574;28;20127;-57
2023/03/11 01:51:06;;;;;;;7.07;1.40;;;;;;;-0.31;91.69;96251.34;5078217;28;20035;-56
2023/03/11 01:53:33;;;;;;;3.30;1.40;;;;;;;-0.43;91.37;96251.19;5084333;28;20037;-55
2023/03/11 01:56:02;;;;;;;3.85;1.50;;;;;;;-0.39;91.39;96243.59;5083837;28;20131;-57
2023/03/11 01:58:34;;;;;;;3.83;1.38;;;;;;;-0.31;91.07;96254.00;5088546;28;20127;-57
2023/03/11 02:01:02;;;;;;;2.33;1.00;;;;;;;-0.27;92.24;96265.03;5086578;28;20042;-57
2023/03/11 02:03:32;;;;;;;3.92;1.45;;;;;;;-0.34;91.49;96273.03;5080229;28;20085;-57
2023/03/11 02:06:00;;;;;;;;;;;;;;;-0.36;91.91;96261.81;5088128;28;20044;-56
2023/03/11 02:08:28;;;;;;;;;;;;;;;-0.35;90.83;96278.56;5082901;28;20125;-56
2023/03/11 02:10:56;;;;;;;;;;;;;;;-0.45;89.64;96289.63;5092817;28;20027;-56
2023/03/11 02:13:22;;;;;;;4.40;1.30;;;;;;;-0.55;88.73;96292.75;5085548;28;19924;-56
2023/03/11 02:15:49;;;;;;;1.30;0.82;;;;;;;-0.60;86.40;96290.69;5085122;28;20523;-54
2023/03/11 02:18:21;;;;;;;2.20;1.15;;;;;;;-0.60;85.90;96292.50;5084238;28;20039;-55
2023/03/11 02:20:58;;;;;;;3.72;1.10;;;;;;;-0.69;86.79;96305.22;5083194;28;20526;-54
2023/03/11 02:23:33;;;;;;;3.40;1.70;;;;;;;-0.74;86.55;96300.50;5091695;28;20032;-57
2023/03/11 02:26:15;;;;;;;7.38;1.23;;;;;;;-0.73;86.78;96274.75;5101885;27;20050;-57
2023/03/11 02:28:45;;;;;;;3.35;1.20;;;;;;;-0.82;86.59;96264.34;5079666;28;20048;-57
2023/03/11 02:31:12;;;;;;;3.72;1.15;;;;;;;-0.88;86.29;96297.06;5087044;28;20040;-55
2023/03/11 02:33:41;;;;;;;3.70;1.00;;;;;;;-0.99;85.37;96279.88;5075825;28;20037;-57
2023/03/11 02:36:35;;;;;;;3.92;1.40;;;;;;;-0.96;87.03;96268.84;5082748;28;20039;-55
2023/03/11 02:39:04;;;;;;;2.95;1.08;;;;;;;-1.05;86.79;96275.41;5082417;28;20075;-58
2023/03/11 02:41:35;;;;;;;6.65;1.20;;;;;;;-1.12;85.57;96287.84;5085839;28;20065;-53
2023/03/11 02:44:07;;;;;;;3.72;1.15;;;;;;;-1.11;85.67;96270.91;5084600;28;20521;-58
2023/03/11 02:46:35;;;;;;;3.13;1.00;;;;;;;-1.20;85.97;96287.06;5087790;28;20094;-56
2023/03/11 02:49:03;;;;;;;2.90;0.85;;;;;;;-1.20;86.16;96295.03;5076239;28;20059;-55
2023/03/11 02:51:31;;;;;;;4.40;0.90;;;;;;;-1.15;86.72;96290.94;5074361;28;20086;-56
2023/03/11 02:54:03;;;;;;;4.57;1.17;;;;;;;-1.26;86.33;96263.94;5079497;28;20228;-55
2023/03/11 02:56:30;;;;;;;;;;;;;;;-1.21;84.96;96277.44;5086604;28;20716;-56
2023/03/11 02:58:58;;;;;;;2.78;0.93;;;;;;;-1.27;85.86;96270.28;5093946;28;19920;-56
2023/03/11 03:01:24;;;;;;;3.13;1.08;;;;;;;-1.31;85.55;96280.50;5080982;28;20048;-56
2023/03/11 03:03:51;;;;;;;2.08;0.77;;;;;;;-1.36;84.88;96290.91;5088544;28;20569;-57
2023/03/11 03:06:18;;;;;;;2.22;0.70;;;;;;;-1.41;85.46;96292.56;5085712;28;20127;-54
2023/03/11 03:08:47;;;;;;;2.27;1.10;;;;;;;-1.45;86.39;96303.56;5090971;28;20048;-56
2023/03/11 03:11:13;;;;;;;4.90;1.17;;;;;;;-1.49;86.99;96301.50;5093056;28;20059;-57
2023/03/11 03:13:40;;;;;;;2.58;0.98;;;;;;;-1.48;87.36;96325.22;5081550;28;20055;-53
2023/03/11 03:16:07;;;;;;;1.73;0.95;;;;;;;-1.51;87.98;96322.16;5087130;28;20468;-56
2023/03/11 03:18:33;;;;;;;5.88;1.27;;;;;;;-1.57;88.17;96321.09;5081931;28;20036;-56
2023/03/11 03:21:00;;;;;;;3.00;1.10;;;;;;;-1.45;87.61;96311.53;5079866;28;20043;-53
2023/03/11 03:23:27;;;;;;;2.97;1.05;;;;;;;-1.57;87.93;96297.22;5085206;28;20055;-57
2023/03/11 03:25:55;;;;;;;6.70;1.30;;;;;;;-1.59;87.99;96307.19;5070116;28;19939;-57
2023/03/11 03:28:21;;;;;;;2.95;1.50;;;;;;;-1.52;87.22;96294.78;5078511;28;20040;-57
2023/03/11 03:30:48;;;;;;;4.50;1.10;;;;;;;-1.63;88.67;96303.31;5077104;28;20068;-55
2023/03/11 03:33:15;;;;;;;4.43;1.40;;;;;;;-1.61;89.31;96302.13;5086867;28;20071;-58
2023/03/11 03:35:44;;;;;;;1.73;0.85;;;;;;;-1.64;88.99;96299.03;5076443;28;20530;-58
2023/03/11 03:38:18;;;;;;;3.40;1.00;;;;;;;-1.73;89.42;96306.38;5082683;28;20043;-55
2023/03/11 03:40:46;;;;;;;3.67;1.25;;;;;;;-1.85;89.93;96314.91;5088802;28;20555;-57
2023/03/11 03:43:16;;;;;;;2.53;0.90;;;;;;;-1.80;90.32;96316.97;5085798;28;20512;-54
2023/03/11 03:45:44;;;;;;;5.68;1.00;;;;;;;-1.77;90.44;96323.72;5082572;28;20052;-54
2023/03/11 03:48:11;;;;;;;3.35;1.00;;;;;;;-1.85;90.95;96327.34;5078836;28;20538;-52
2023/03/11 03:50:42;;;;;;;3.27;1.10;;;;;;;-1.97;91.04;96341.19;5082130;28;20157;-57
2023/03/11 03:53:12;;;;;;;3.47;1.20;;;;;;;-2.04;91.66;96337.69;5081554;28;20108;-57
2023/03/11 03:55:39;;;;;;;3.42;1.30;;;;;;;-2.02;91.63;96338.31;5076549;28;20110;-53
2023/03/11 03:58:06;;;;;;;4.43;0.98;;;;;;;-2.03;92.65;96339.31;5083418;28;20046;-54
2023/03/11 04:00:35;;;;;;;3.58;1.20;;;;;;;-2.04;92.54;96343.00;5084005;28;20568;-54
2023/03/11 04:03:02;;;;;;;2.60;0.88;;;;;;;-1.97;91.62;96354.47;5091775;28;20043;-55
2023/03/11 04:05:40;;;;;;;2.08;1.05;;;;;;;-2.04;92.84;96350.13;5084194;28;20035;-54
2023/03/11 04:08:07;;;;;;;1.58;1.00;;;;;;;-2.09;92.13;96353.38;5083689;28;20539;-57
2023/03/11 04:10:34;;;;;;;3.13;1.35;;;;;;;-2.11;92.77;96350.09;5080244;28;20048;-55
2023/03/11 04:13:01;;;;;;;2.85;1.05;;;;;;;-2.05;92.55;96367.06;5086654;28;20043;-56
2023/03/11 04:15:28;;;;;;;3.17;1.33;;;;;;;-2.12;92.44;96359.91;5077505;28;20040;-55
2023/03/11 04:17:55;;;;;;;5.68;1.23;;;;;;;-2.07;92.53;96350.53;5087524;28;20101;-57
2023/03/11 04:20:21;;;;;;;2.28;0.90;;;;;;;-1.99;92.08;96350.38;5082377;28;20047;-53
2023/03/11 04:22:50;;;;;;;4.03;1.08;;;;;;;-2.09;93.20;96348.88;5082490;28;20557;-56
2023/03/11 04:25:18;;;;;;;2.80;0.90;;;;;;;-1.97;92.63;96353.63;5086971;28;20043;-56
2023/03/11 04:27:48;;;;;;;3.10;1.02;;;;;;;-2.17;93.51;96354.38;5079088;28;20504;-57
2023/03/11 04:30:15;;;;;;;5.93;1.40;;;;;;;-2.27;94.65;96360.03;5084570;28;20445;-56
2023/03/11 04:32:44;;;;;;;3.97;1.30;;;;;;;-2.27;95.08;96354.72;5081011;28;20124;-57
2023/03/11 04:35:11;;;;;;;3.67;1.20;;;;;;;-2.28;94.99;96353.06;5080322;28;20052;-56
2023/03/11 04:37:38;;;;;;;3.92;1.40;;;;;;;-2.29;94.71;96351.41;5080445;28;20037;-55
2023/03/11 04:40:05;;;;;;;5.35;1.02;;;;;;;-2.19;94.74;96360.84;5079757;28;20052;-58
2023/03/11 04:42:33;;;;;;;3.88;1.73;;;;;;;-2.05;93.67;96362.59;5083873;28;20130;-55
2023/03/11 04:45:00;;;;;;;0.93;0.77;;;;;;;-2.01;92.18;96363.81;5085210;28;20066;-55
2023/03/11 04:47:29;;;;;;;3.30;1.08;;;;;;;-1.94;92.02;96361.19;5077271;28;20040;-56
2023/03/11 04:49:55;;;;;;;2.00;1.17;;;;;;;-2.14;92.76;96351.31;5081874;28;20036;-57
2023/03/11 04:52:23;;;;;;;4.15;1.25;;;;;;;-2.14;92.20;96353.16;5082879;28;20031;-56
2023/03/11 04:54:50;;;;;;;5.47;1.42;;;;;;;-2.16;92.28;96360.47;5087084;28;20514;-57
2023/03/11 04:57:16;;;;;;;2.35;1.17;;;;;;;-2.18;92.16;96359.88;5086055;28;20449;-58
2023/03/11 04:59:43;;;;;;;2.53;1.08;;;;;;;-2.16;92.16;96356.00;5086548;28;20040;-56
2023/03/11 05:02:12;;;;;;;2.95;1.25;;;;;;;-2.29;92.53;96361.22;5091501;28;20130;-56
2023/03/11 05:04:44;;;;;;;3.00;1.00;;;;;;;-2.29;92.80;96362.03;5080559;28;20044;-54
2023/03/11 05:07:13;;;;;;;4.25;1.00;;;;;;;-2.26;92.54;96371.44;5089193;28;20039;-57
2023/03/11 05:09:40;;;;;;;3.65;1.27;;;;;;;-2.24;91.50;96367.56;5082700;28;20056;-57
2023/03/11 05:12:09;;;;;;;4.32;1.13;;;;;;;-2.25;91.79;96373.88;5086216;28;20506;-56
2023/03/11 05:14:36;;;;;;;6.85;1.83;;;;;;;-2.30;92.33;96367.53;5084564;28;20041;-55
2023/03/11 05:17:03;;;;;;;3.70;1.15;;;;;;;-2.20;91.73;96372.47;5078135;28;20031;-55
2023/03/11 05:19:30;;;;;;;2.83;1.33;;;;;;;-2.36;92.33;96385.84;5083175;28;20052;-56
2023/03/11 05:22:01;;;;;;;5.32;1.58;;;;;;;-2.42;92.56;96372.56;5084578;28;20043;-56
2023/03/11 05:24:28;;;;;;;3.15;1.25;;;;;;;-2.41;94.23;96376.84;5080517;28;20082;-56
2023/03/11 05:26:56;;;;;;;6.25;1.58;;;;;;;-2.50;93.30;96379.63;5080177;28;20045;-56
2023/03/11 05:29:24;;;;;;;2.78;1.02;;;;;;;-2.43;92.70;96389.50;5089920;28;20505;-54
2023/03/11 05:31:52;;;;;;;3.47;1.02;;;;;;;-2.51;92.99;96383.31;5092924;28;20055;-57
2023/03/11 05:34:19;;;;;;;5.43;1.13;;;;;;;-2.50;92.58;96389.44;5078799;28;20706;-54
2023/03/11 05:36:46;;;;;;;3.20;1.25;;;;;;;-2.37;91.76;96388.69;5083536;28;20132;-56
2023/03/11 05:39:13;;;;;;;6.88;1.15;;;;;;;-2.46;92.28;96392.50;5080118;27;20135;-58
2023/03/11 05:41:40;;;;;;;4.60;1.23;;;;;;;-2.51;92.71;96390.47;5084634;28;20807;-57
2023/03/11 05:44:06;;;;;;;2.95;0.95;;;;;;;-2.51;93.09;96387.81;5086314;28;20135;-56
2023/03/11 05:46:33;;;;;;;4.95;1.00;;;;;;;-2.46;93.04;96384.56;5082499;28;20059;-55
2023/03/11 05:49:01;;;;;;;2.60;0.88;;;;;;;-2.41;92.17;96393.56;5088893;28;20036;-56
2023/03/11 05:51:28;;;;;;;3.25;1.05;;;;;;;-2.55;93.10;96394.50;5075664;28;20419;-55
2023/03/11 05:53:55;;;;;;;4.80;1.45;;;;;;;-2.62;93.38;96402.38;5082480;28;20039;-54
2023/03/11 05:56:31;;;;;;;6.90;1.60;;;;;;;-2.51;92.68;96391.25;5075628;28;20072;-54
2023/03/11 05:58:58;;;;;;;2.78;1.13;;;;;;;-2.59;93.85;96402.00;5084402;28;20591;-55
2023/03/11 06:01:27;;;;;;;5.20;1.17;;;;;;;-2.64;94.23;96405.25;5081290;28;20047;-58
2023/03/11 06:03:54;;;;;;;4.38;1.33;;;;;;;-2.70;94.58;96408.66;5090783;28;20048;-55
2023/03/11 06:06:22;;;;;;;3.50;1.10;;;;;;;-2.67;94.93;96408.28;5080320;28;20048;-54
2023/03/11 06:08:49;;;;;;;4.63;0.95;;;;;;;-2.70;94.39;96408.66;5079572;28;20048;-57
2023/03/11 06:11:18;;;;;;;3.60;1.10;;;;;;;-2.68;95.15;96413.75;5072403;28;20042;-58
2023/03/11 06:13:45;;;;;;;4.32;1.65;;;;;;;-2.65;95.39;96410.75;5074877;28;20392;-56
2023/03/11 06:16:13;;;;;;;4.45;1.30;;;;;;;-2.62;95.78;96410.34;5083586;28;20059;-54
2023/03/11 06:18:39;;;;;;;2.83;1.17;;;;;;;-2.65;95.51;96418.69;5082538;28;20062;-59
2023/03/11 06:21:07;;;;;;;3.92;1.10;;;;;;;-2.55;95.13;96413.88;5085103;28;20042;-56
2023/03/11 06:23:34;;;;;;;4.18;1.30;;;;;;;-2.53;95.14;96403.06;5083437;28;20586;-56
2023/03/11 06:26:03;;;;;;;7.30;1.50;;;;;;;-2.51;94.84;96403.72;5081335;28;20130;-56
2023/03/11 06:28:35;;;;;;;3.72;1.40;;;;;;;-2.37;94.78;96412.56;5087234;28;20052;-58
2023/03/11 06:31:09;;;;;;;3.85;1.20;;;;;;;-2.31;93.58;96419.75;5087322;28;20588;-57
2023/03/11 06:33:36;;;;;;;3.53;1.30;;;;;;;-2.22;93.66;96431.03;5079554;28;19946;-59
2023/03/11 06:36:04;;;;;;;4.30;1.20;;;;;;;-2.16;93.31;96434.75;5085920;28;20036;-56
2023/03/11 06:38:31;;;;;;;3.58;1.33;;;;;;;-2.04;93.27;96438.50;5085557;28;20032;-59
2023/03/11 06:40:59;;;;;;;4.20;2.13;;;;;;;-1.94;92.57;96445.28;5079825;28;20064;-58
2023/03/11 06:43:26;;;;;;;5.10;1.38;;;;;;;-1.90;92.53;96454.47;5073938;28;20085;-58
2023/03/11 06:45:53;;;;;;;2.70;0.95;;;;;;;-1.87;91.37;96452.28;5080410;28;20127;-58
2023/03/11 06:48:20;;;;;;;3.15;1.20;;;;;;;-1.77;90.18;96443.94;5078338;28;20048;-56
2023/03/11 06:50:58;;;;;;;4.82;0.93;;;;;;;-1.58;90.25;96457.53;5077486;28;20046;-58
2023/03/11 06:53:28;;;;;;;3.55;1.15;;;;;;;-1.55;89.29;96458.97;5081774;28;20484;-55
2023/03/11 06:56:04;;;;;;;3.97;1.40;;;;;;;-1.49;89.20;96459.00;5080035;28;20048;-56
2023/03/11 06:58:37;;;;;;;6.55;1.52;;;;;;;-1.45;89.35;96457.59;5097680;27;20424;-58
2023/03/11 07:01:07;;;;;;;5.53;1.55;;;;;;;-1.39;89.20;96455.16;5080656;28;20047;-56
2023/03/11 07:03:33;;;;;;;3.55;1.50;;;;;;;-1.16;88.33;96459.31;5078595;28;20661;-54
2023/03/11 07:06:00;;;;;;;2.80;0.90;;;;;;;-1.27;87.30;96461.53;5075719;28;20051;-57
2023/03/11 07:08:27;;;;;;;2.88;1.00;;;;;;;-1.26;87.05;96473.78;5083137;28;20059;-58
2023/03/11 07:11:06;;;;;;;2.08;0.85;;;;;;;-1.09;85.81;96468.13;5077389;28;20051;-58
2023/03/11 07:13:33;;;;;;;5.05;1.08;;;;;;;-1.01;86.02;96477.75;5077221;28;20067;-57
2023/03/11 07:16:14;;;;;;;4.03;1.27;;;;;;;-1.02;85.89;96484.91;5083297;28;20281;-58
2023/03/11 07:18:43;;;;;;;4.40;1.17;;;;;;;-1.06;84.70;96476.50;5082771;28;20039;-57
2023/03/11 07:21:13;;;;;;;7.93;1.40;;;;;;;-1.03;85.61;96482.44;5081384;28;20070;-58
2023/03/11 07:23:40;;;;;;;1.08;0.77;;;;;;;-1.03;85.82;96477.13;5082251;28;20032;-58
2023/03/11 07:26:12;;;;;;;5.55;1.17;;;;;;;-1.18;84.67;96475.47;5077614;28;20044;-57
2023/03/11 07:28:39;;;;;;;2.92;0.80;;;;;;;-1.14;84.87;96483.84;5078406;28;20135;-58
2023/03/11 07:31:27;;;;;;;3.88;1.00;;;;;;;-1.04;84.37;96486.94;5080904;28;20130;-57
2023/03/11 07:33:56;;;;;;;4.60;1.10;;;;;;;-1.09;84.01;96492.88;5072837;28;20032;-57
2023/03/11 07:36:25;;;;;;;3.85;1.05;;;;;;;-0.95;85.05;96504.34;5082974;28;20044;-57
2023/03/11 07:39:01;;;;;;;8.52;1.52;;;;;;;-0.88;81.50;96500.91;5086707;28;20075;-58
2023/03/11 07:41:34;;;;;;;4.32;1.23;;;;;;;-0.83;80.63;96512.56;5082766;28;20032;-58
2023/03/11 07:44:02;;;;;;;5.45;1.23;;;;;;;-0.74;82.48;96502.56;5086471;28;20102;-57
2023/03/11 07:46:30;;;;;;;2.28;1.00;;;;;;;-0.66;82.21;96512.19;5082344;28;20109;-58
2023/03/11 07:48:56;;;;;;;5.72;0.82;;;;;;;-0.59;79.62;96517.53;5083728;28;20040;-57
2023/03/11 07:51:26;;;;;;;3.15;1.50;;;;;;;-0.72;79.77;96513.81;5079821;28;20044;-57
2023/03/11 07:53:54;;;;;;;2.88;0.90;;;;;;;-0.64;80.87;96520.78;5088536;28;20044;-57
2023/03/11 07:56:22;;;;;;;5.50;1.10;;;;;;;-0.68;79.37;96527.53;5078793;28;20044;-57
2023/03/11 07:58:49;;;;;;;3.83;0.90;;;;;;;-0.60;81.10;96530.00;5080520;28;20063;-58
2023/03/11 08:01:18;;;;;;;4.32;1.00;;;;;;;-0.60;80.06;96521.19;5081397;28;20040;-56
2023/03/11 08:03:48;;;;;;;2.25;0.82;;;;;;;-0.46;80.68;96520.22;5079496;28;20586;-58
2023/03/11 08:06:18;;;;;;;2.00;0.95;;;;;;;-0.39;79.78;96533.50;5076917;28;20047;-56
2023/03/11 08:08:44;;;;;;;3.58;0.70;;;;;;;-0.47;78.69;96525.72;5068060;28;20127;-54
2023/03/11 08:11:12;;;;;;;3.13;1.25;;;;;;;-0.40;79.28;96527.38;5074815;28;20648;-58
2023/03/11 08:13:40;;;;;;;6.93;1.20;;;;;;;-0.30;77.24;96531.47;5085620;28;20121;-55
2023/03/11 08:16:08;;;;;;;2.72;1.00;;;;;;;-0.36;78.59;96537.59;5088657;28;20092;-56
2023/03/11 08:18:35;;;;;;;3.05;0.85;;;;;;;-0.21;78.77;96537.41;5075189;28;20054;-57
2023/03/11 08:21:11;;;;;;;3.50;1.23;;;;;;;-0.12;77.31;96538.06;5085482;28;20533;-58
2023/03/11 08:23:38;;;;;;;3.10;1.38;;;;;;;-0.03;78.98;96534.97;5083055;28;20392;-55
2023/03/11 08:26:10;;;;;;;6.70;1.05;;;;;;;-0.02;78.27;96541.13;5075363;28;20036;-58
2023/03/11 08:28:37;;;;;;;1.58;0.70;;;;;;;-0.11;77.15;96537.81;5077430;28;20049;-55
2023/03/11 08:31:15;;;;;;;3.85;0.82;;;;;;;-0.04;77.68;96538.66;5082170;28;20047;-57
2023/03/11 08:33:44;;;;;;;4.00;0.80;;;;;;;0.19;76.81;96555.25;5072066;28;20036;-55
2023/03/11 08:36:11;;;;;;;5.72;0.98;;;;;;;0.14;76.43;96547.84;5074064;28;20114;-58
2023/03/11 08:38:38;;;;;;;3.00;1.20;;;;;;;0.28;75.94;96547.84;5079210;28;20127;-58
2023/03/11 08:41:05;;;;;;;3.60;0.95;;;;;;;0.35;74.76;96546.84;5088379;28;20094;-58
2023/03/11 08:43:31;;;;;;;4.57;0.90;;;;;;;0.39;74.38;96555.22;5071818;28;20048;-58
2023/03/11 08:46:05;;;;;;;4.70;0.95;;;;;;;0.52;74.43;96549.06;5079576;28;20586;-58
2023/03/11 08:48:32;;;;;;;4.05;1.10;;;;;;;0.48;73.27;96553.97;5077208;28;20583;-57
2023/03/11 08:50:59;;;;;;;4.13;1.08;;;;;;;0.58;73.91;96556.22;5088872;28;20093;-54
2023/03/11 08:53:25;;;;;;;3.58;1.38;;;;;;;0.47;74.93;96562.16;5081827;28;20051;-56
2023/03/11 08:55:52;;;;;;;4.20;1.08;;;;;;;0.64;72.63;96573.22;5084738;28;20136;-55
2023/03/11 08:58:19;;;;;;;6.78;1.33;;;;;;;0.53;72.14;96561.34;5075973;28;20108;-58
2023/03/11 09:00:46;;;;;;;6.40;1.13;;;;;;;0.45;73.43;96567.72;5088635;28;20055;-57
2023/03/11 09:03:12;;;;;;;5.15;1.30;;;;;;;0.31;72.18;96569.56;5089730;28;20074;-57
2023/03/11 09:05:39;;;;;;;6.43;1.52;;;;;;;0.42;72.97;96565.47;5086482;28;20040;-54
2023/03/11 09:08:06;;;;;;;5.28;1.08;;;;;;;0.56;73.96;96563.59;5077849;28;20047;-55
2023/03/11 09:10:32;;;;;;;3.38;0.90;;;;;;;0.61;72.64;96561.13;5076472;28;20071;-58
2023/03/11 09:12:59;;;;;;;4.28;0.98;;;;;;;0.77;71.21;96569.69;5088873;28;20538;-57
2023/03/11 09:15:25;;;;;;;7.28;1.38;;;;;;;0.99;70.13;96569.44;5079161;28;20064;-56
2023/03/11 09:17:53;;;;;;;3.92;1.10;;;;;;;0.91;69.09;96573.13;5085322;28;20051;-58
2023/03/11 09:20:19;;;;;;;3.70;0.85;;;;;;;0.68;68.20;96577.09;5081371;28;20122;-58
2023/03/11 09:22:46;;;;;;;2.65;0.95;;;;;;;0.81;68.33;96578.09;5078794;28;20048;-56
2023/03/11 09:25:13;;;;;;;3.67;0.80;;;;;;;0.87;68.38;96579.91;5088719;28;20042;-56
2023/03/11 09:27:40;;;;;;;5.13;1.00;;;;;;;0.69;69.60;96580.56;5072826;28;20102;-56
2023/03/11 09:30:08;;;;;;;1.98;0.85;;;;;;;0.95;70.62;96586.88;5091813;28;20061;-57
2023/03/11 09:32:35;;;;;;;2.97;1.00;;;;;;;1.11;67.78;96583.72;5085418;28;20063;-58
2023/03/11 09:35:02;;;;;;;2.67;1.00;;;;;;;1.01;68.58;96586.03;5086833;28;20043;-55
2023/03/11 09:37:29;;;;;;;2.75;0.98;;;;;;;1.30;69.54;96573.22;5075505;28;20041;-57
2023/03/11 09:39:56;;;;;;;2.05;1.13;;;;;;;1.30;64.79;96566.00;5088911;28;20723;-56
2023/03/11 09:42:42;;;;;;;3.80;1.10;;;;;;;1.39;63.23;96576.44;5087681;28;20178;-56
2023/03/11 09:45:15;;;;;;;3.42;0.75;;;;;;;1.54;63.82;96573.50;5086926;28;20534;-55
2023/03/11 09:48:10;;;;;;;2.35;0.75;;;;;;;1.59;62.45;96572.84;5072439;28;20523;-58
2023/03/11 09:50:52;;;;;;;3.05;0.80;;;;;;;1.54;61.89;96574.31;5082759;28;20615;-58
2023/03/11 09:53:34;;;;;;;2.80;0.70;;;;;;;1.67;61.33;96572.59;5078598;28;20042;-57
2023/03/11 09:56:05;;;;;;;2.38;0.75;;;;;;;1.72;60.38;96571.94;5086548;28;20054;-58
2023/03/11 09:58:55;;;;;;;4.15;1.15;;;;;;;1.76;62.36;96579.31;5078757;28;20056;-55
2023/03/11 10:01:32;;;;;;;1.52;0.55;;;;;;;1.67;61.46;96580.63;5081847;28;20096;-59
2023/03/11 10:04:13;;;;;;;2.53;0.60;;;;;;;1.69;60.93;96574.03;5091869;28;20456;-58
2023/03/11 10:06:41;;;;;;;1.88;0.57;;;;;;;1.95;58.95;96577.56;5077667;28;20119;-58
2023/03/11 10:09:11;;;;;;;4.47;0.93;;;;;;;2.10;57.36;96573.75;5074789;28;20120;-56
2023/03/11 10:11:48;;;;;;;2.58;0.68;;;;;;;2.30;56.01;96570.09;5080098;28;20068;-56
2023/03/11 10:14:33;;;;;;;2.58;0.68;;;;;;;2.06;58.38;96578.69;5072699;28;20622;-55
2023/03/11 10:17:38;;;;;;;1.58;0.70;;;;;;;2.18;57.28;96581.47;5089554;28;20737;-56
2023/03/11 10:20:37;;;;;;;2.17;0.73;;;;;;;1.82;57.64;96582.97;5083149;28;20035;-57
2023/03/11 10:23:34;;;;;;;3.90;0.70;;;;;;;2.10;59.98;96580.94;5084458;28;20155;-57
2023/03/11 10:26:24;;;;;;;3.08;0.93;;;;;;;2.34;61.10;96565.97;5087168;28;20040;-57
2023/03/11 10:28:59;;;;;;;4.60;1.45;;;;;;;2.58;60.76;96571.50;5077930;28;20047;-57
2023/03/11 10:31:30;;;;;;;4.10;0.85;;;;;;;2.68;58.68;96571.81;5073054;28;20097;-55
2023/03/11 10:34:02;;;;;;;4.72;1.08;;;;;;;2.49;57.87;96578.16;5074581;28;20064;-56
2023/03/11 10:36:50;;;;;;;6.50;1.15;;;;;;;2.41;57.75;96577.41;5085746;28;20036;-57
2023/03/11 10:39:18;;;;;;;2.78;0.80;;;;;;;2.43;60.39;96574.53;5074540;28;20070;-57
2023/03/11 10:41:56;;;;;;;2.00;0.70;;;;;;;2.58;56.58;96574.19;5078066;28;20054;-55
2023/03/11 10:44:34;;;;;;;3.28;0.68;;;;;;;2.51;57.15;96568.88;5073900;28;20044;-58
2023/03/11 10:47:01;;;;;;;3.20;1.05;;;;;;;2.33;55.23;96572.34;5085157;28;22263;-56
2023/03/11 10:49:28;;;;;;;2.10;0.80;;;;;;;1.86;57.68;96564.69;5078079;28;20735;-58
2023/03/11 10:51:56;;;;;;;3.90;1.02;;;;;;;1.89;58.18;96567.75;5080035;28;20059;-57
2023/03/11 10:54:25;;;;;;;3.58;0.85;;;;;;;1.55;59.53;96578.63;5086437;28;20071;-58
2023/03/11 10:57:00;;;;;;;2.60;0.90;;;;;;;1.74;60.14;96575.22;5081600;28;20527;-57
2023/03/11 10:59:32;;;;;;;3.80;0.98;;;;;;;1.79;61.54;96572.72;5075759;28;20052;-57
2023/03/11 11:02:02;;;;;;;4.18;0.93;;;;;;;2.10;60.48;96580.94;5077458;28;20642;-58
2023/03/11 11:04:39;;;;;;;2.05;0.57;;;;;;;2.39;55.98;96582.13;5086756;28;20052;-57
2023/03/11 11:07:39;;;;;;;6.63;1.00;;;;;;;2.19;56.80;96582.31;5083753;28;20546;-58
2023/03/11 11:10:21;;;;;;;2.03;0.63;;;;;;;2.42;57.86;96576.38;5058795;28;20150;-58
2023/03/11 11:12:55;;;;;;;2.85;0.77;;;;;;;2.60;56.80;96574.75;5080411;28;20052;-58
2023/03/11 11:15:40;;;;;;;4.18;0.90;;;;;;;2.60;55.38;96588.13;5081695;28;20052;-56
2023/03/11 11:18:31;;;;;;;0.95;0.55;;;;;;;2.20;57.59;96582.09;5076042;28;20043;-57
2023/03/11 11:21:03;;;;;;;4.13;0.80;;;;;;;2.31;57.99;96585.09;5082797;28;20167;-57
2023/03/11 11:23:34;;;;;;;;;;;;;;;2.02;57.84;96588.19;5091518;28;20518;-56
2023/03/11 11:26:04;;;;;;;4.57;1.13;;;;;;;2.19;57.64;96596.50;5082749;28;19974;-58
2023/03/11 11:28:32;;;;;;;1.92;0.80;;;;;;;2.49;56.24;96588.84;5076017;28;20119;-58
2023/03/11 11:31:04;;;;;;;3.78;0.70;;;;;;;2.51;55.59;96590.25;5088294;28;20055;-58
2023/03/11 11:33:38;;;;;;;5.88;1.25;;;;;;;2.54;56.65;96589.03;5063768;28;20048;-57
2023/03/11 11:36:13;;;;;;;3.80;1.02;;;;;;;2.46;55.81;96582.91;5072228;28;20051;-56
2023/03/11 11:38:40;;;;;;;7.65;1.20;;;;;;;2.51;57.22;96576.09;5081866;28;20052;-57
2023/03/11 11:41:12;;;;;;;2.97;0.80;;;;;;;2.66;56.19;96579.25;5083980;28;20043;-57
2023/03/11 11:43:50;;;;;;;3.58;0.80;;;;;;;2.67;53.93;96572.84;5080448;28;20048;-58
2023/03/11 11:46:50;;;;;;;1.48;0.65;;;;;;;2.70;52.73;96569.72;5086904;28;20040;-57
2023/03/11 11:49:26;;;;;;;1.10;0.50;;;;;;;2.89;52.79;96571.59;5058780;28;20567;-57
2023/03/11 11:52:05;;;;;;;5.50;0.70;;;;;;;2.99;52.60;96564.69;5080589;28;20044;-53